createdAt,value
2022-12-04T00:02:10.928Z,102021.50
2022-12-04T00:07:12.482Z,102016.91
2022-12-04T00:12:14.026Z,102017.09
2022-12-04T00:17:15.626Z,102013.19
2022-12-04T00:22:17.093Z,102002.94
2022-12-04T00:27:18.642Z,102010.53
2022-12-04T00:32:20.165Z,102006.91
2022-12-04T00:37:21.747Z,101994.69
2022-12-04T00:42:23.263Z,102009.38
2022-12-04T00:47:24.869Z,102006.47
2022-12-04T00:52:28.319Z,102009.06
2022-12-04T00:57:29.855Z,102007.94
2022-12-04T01:02:31.615Z,102006.16
2022-12-04T01:07:33.225Z,102009.81
2022-12-04T01:12:35.001Z,102012.00
2022-12-04T01:17:36.928Z,101993.91
2022-12-04T01:22:38.486Z,101990.31
2022-12-04T01:27:39.972Z,101995.19
2022-12-04T01:32:41.579Z,101978.50
2022-12-04T01:37:43.121Z,101961.53
2022-12-04T01:42:44.636Z,101972.75
2022-12-04T01:47:46.332Z,101981.03
2022-12-04T01:52:47.982Z,101962.13
2022-12-04T01:57:49.449Z,101962.91
2022-12-04T02:02:51.089Z,101962.25
2022-12-04T02:07:57.607Z,101955.50
2022-12-04T02:13:07.303Z,101969.69
2022-12-04T02:18:12.625Z,101957.94
2022-12-04T02:23:20.906Z,101965.41
2022-12-04T02:28:38.553Z,101959.84
2022-12-04T02:33:52.488Z,101967.69
2022-12-04T02:39:06.943Z,101961.56
2022-12-04T02:44:17.564Z,101959.84
2022-12-04T02:49:25.245Z,101968.03
2022-12-04T02:54:41.403Z,101962.19
2022-12-04T02:59:45.511Z,101964.66
2022-12-04T03:04:50.796Z,101962.78
2022-12-04T03:09:56.639Z,101964.22
2022-12-04T03:15:02.979Z,101965.19
2022-12-04T03:20:10.930Z,101970.56
2022-12-04T03:25:13.892Z,101962.41
2022-12-04T03:30:21.845Z,101959.59
2022-12-04T03:35:29.464Z,101963.78
2022-12-04T03:40:54.203Z,101953.84
2022-12-04T03:46:08.534Z,101950.53
2022-12-04T03:51:47.488Z,101939.66
2022-12-04T03:56:53.280Z,101949.13
2022-12-04T04:01:59.589Z,101940.97
2022-12-04T04:07:37.947Z,101936.47
2022-12-04T04:13:11.593Z,101928.41
2022-12-04T04:18:31.711Z,101921.41
2022-12-04T04:24:05.065Z,101935.72
2022-12-04T04:29:06.519Z,101940.66
2022-12-04T04:34:29.261Z,101943.41
2022-12-04T04:39:45.560Z,101936.84
2022-12-04T04:45:02.210Z,101938.06
2022-12-04T04:50:07.080Z,101943.41
2022-12-04T04:55:09.415Z,101953.63
2022-12-04T05:00:14.888Z,101944.94
2022-12-04T05:05:18.566Z,101955.25
2022-12-04T05:10:20.045Z,101945.44
2022-12-04T05:15:21.565Z,101944.28
2022-12-04T05:20:23.093Z,101940.97
2022-12-04T05:25:25.323Z,101944.06
2022-12-04T05:30:26.858Z,101943.28
2022-12-04T05:35:28.354Z,101948.31
2022-12-04T05:40:29.833Z,101950.94
2022-12-04T05:45:31.312Z,101948.66
2022-12-04T05:50:32.771Z,101952.84
2022-12-04T05:55:34.355Z,101955.13
2022-12-04T06:00:36.031Z,101953.59
2022-12-04T06:05:37.529Z,101962.59
2022-12-04T06:10:39.179Z,101958.44
2022-12-04T06:15:40.994Z,101971.38
2022-12-04T06:20:42.758Z,101965.00
2022-12-04T06:25:44.740Z,101960.56
2022-12-04T06:30:46.247Z,101978.06
2022-12-04T06:35:47.719Z,101959.72
2022-12-04T06:40:49.258Z,101962.78
2022-12-04T06:46:01.031Z,101972.63
2022-12-04T06:51:06.911Z,101970.50
2022-12-04T06:56:11.399Z,101961.50
2022-12-04T07:01:17.533Z,101966.22
2022-12-04T07:06:29.008Z,101955.28
2022-12-04T07:11:30.796Z,101964.31
2022-12-04T07:16:39.889Z,101950.03
2022-12-04T07:21:43.115Z,101964.03
2022-12-04T07:26:45.327Z,101968.38
2022-12-04T07:31:46.856Z,101971.78
2022-12-04T07:36:48.349Z,101976.91
2022-12-04T07:41:50.449Z,101981.03
2022-12-04T07:46:51.955Z,101982.22
2022-12-04T07:51:53.427Z,101989.41
2022-12-04T07:56:55.079Z,101983.34
2022-12-04T08:01:56.648Z,101981.34
2022-12-04T08:06:58.244Z,101991.31
2022-12-04T08:11:59.715Z,102000.94
2022-12-04T08:17:01.243Z,101996.06
2022-12-04T08:22:02.845Z,101997.09
2022-12-04T08:27:04.420Z,101990.91
2022-12-04T08:32:06.116Z,101992.78
2022-12-04T08:37:07.712Z,102017.47
2022-12-04T08:42:09.200Z,102009.63
2022-12-04T08:47:10.795Z,102013.56
2022-12-04T08:52:12.327Z,102013.16
2022-12-04T08:57:13.827Z,102016.25
2022-12-04T09:02:16.739Z,102011.81
2022-12-04T09:07:18.232Z,102029.22
2022-12-04T09:12:19.803Z,102026.00
2022-12-04T09:17:21.319Z,102017.06
2022-12-04T09:22:23.600Z,102039.38
2022-12-04T09:27:26.009Z,102036.94
2022-12-04T09:32:27.573Z,102035.66
2022-12-04T09:37:29.101Z,102035.13
2022-12-04T09:42:58.801Z,102037.19
2022-12-04T09:48:01.765Z,102038.88
2022-12-04T09:53:10.084Z,102039.41
2022-12-04T09:58:23.687Z,102040.84
2022-12-04T10:03:28.324Z,102035.03
2022-12-04T10:08:37.625Z,102033.69
2022-12-04T10:14:03.311Z,102029.09
2022-12-04T10:19:34.187Z,102038.06
2022-12-04T10:24:38.310Z,102023.38
2022-12-04T10:29:43.374Z,102021.06
2022-12-04T10:34:46.125Z,102011.34
2022-12-04T10:40:09.873Z,102010.78
2022-12-04T10:45:12.811Z,101995.84
2022-12-04T10:50:17.184Z,102007.44
2022-12-04T10:55:35.823Z,101995.16
2022-12-04T11:00:37.354Z,101987.81
2022-12-04T11:05:46.363Z,101980.97
2022-12-04T11:10:59.201Z,101979.47
2022-12-04T11:16:00.890Z,101986.06
2022-12-04T11:21:07.481Z,101991.72
2022-12-04T11:26:10.025Z,101984.88
2022-12-04T11:31:22.293Z,101975.63
2022-12-04T11:36:41.499Z,101975.69
2022-12-04T11:41:43.332Z,101967.44
2022-12-04T11:46:55.869Z,101964.59
2022-12-04T11:52:27.968Z,101976.34
2022-12-04T11:57:51.576Z,101964.53
2022-12-04T12:03:16.475Z,101970.38
2022-12-04T12:08:41.468Z,101958.91
2022-12-04T12:14:08.568Z,101956.97
2022-12-04T12:19:31.532Z,101972.59
2022-12-04T12:25:11.969Z,101950.31
2022-12-04T12:30:20.474Z,101952.84
2022-12-04T12:35:29.852Z,101938.81
2022-12-04T12:40:43.033Z,101933.22
2022-12-04T12:45:47.589Z,101925.91
2022-12-04T12:51:14.754Z,101920.56
2022-12-04T12:56:18.083Z,101919.78
2022-12-04T13:01:24.540Z,101918.63
2022-12-04T13:06:35.982Z,101912.31
2022-12-04T13:11:38.629Z,101913.56
2022-12-04T13:16:48.390Z,101903.03
2022-12-04T13:22:04.660Z,101908.31
2022-12-04T13:27:17.697Z,101893.53
2022-12-04T13:32:37.956Z,101892.09
2022-12-04T13:38:17.966Z,101895.91
2022-12-04T13:43:27.631Z,101900.81
2022-12-04T13:48:40.188Z,101901.06
2022-12-04T13:53:43.579Z,101908.97
2022-12-04T13:58:45.174Z,101918.03
2022-12-04T14:03:50.504Z,101908.09
2022-12-04T14:08:58.404Z,101901.44
2022-12-04T14:14:06.434Z,101902.69
2022-12-04T14:19:30.046Z,101888.41
2022-12-04T14:24:39.312Z,101897.94
2022-12-04T14:29:52.120Z,101892.31
2022-12-04T14:34:55.054Z,101887.09
2022-12-04T14:39:58.533Z,101894.28
2022-12-04T14:45:02.495Z,101916.84
2022-12-04T14:50:20.641Z,101916.19
2022-12-04T14:55:32.426Z,101917.75
2022-12-04T15:00:34.292Z,101924.63
2022-12-04T15:05:35.766Z,101958.09
2022-12-04T15:10:57.356Z,101920.84
2022-12-04T15:16:09.065Z,101926.31
2022-12-04T15:21:11.619Z,101936.91
2022-12-04T15:26:18.761Z,101928.56
2022-12-04T15:31:47.052Z,101923.47
2022-12-04T15:36:55.215Z,101941.81
2022-12-04T15:42:24.676Z,101926.06
2022-12-04T15:47:30.877Z,101935.63
2022-12-04T15:52:32.502Z,101925.94
2022-12-04T15:57:49.763Z,101934.53
2022-12-04T16:02:51.623Z,101923.00
2022-12-04T16:07:58.911Z,101919.44
2022-12-04T16:13:03.944Z,101927.53
2022-12-04T16:18:07.259Z,101926.47
2022-12-04T16:23:09.559Z,101926.63
2022-12-04T16:28:11.019Z,101939.00
2022-12-04T16:33:15.731Z,101942.97
2022-12-04T16:38:17.814Z,101946.00
2022-12-04T16:43:19.479Z,101937.88
2022-12-04T16:48:21.189Z,101957.88
2022-12-04T16:53:22.889Z,101952.44
2022-12-04T16:58:24.455Z,101961.97
2022-12-04T17:03:31.072Z,101964.19
2022-12-04T17:08:33.083Z,101971.84
2022-12-04T17:13:34.551Z,101971.94
2022-12-04T17:18:36.106Z,101964.03
2022-12-04T17:23:37.666Z,101967.22
2022-12-04T17:28:39.784Z,101961.59
2022-12-04T17:33:43.476Z,101975.19
2022-12-04T17:38:44.977Z,101957.47
2022-12-04T17:43:46.949Z,101968.31
2022-12-04T17:48:49.179Z,101967.19
2022-12-04T17:53:51.413Z,101969.59
2022-12-04T17:58:53.705Z,101969.03
2022-12-04T18:04:01.795Z,101957.00
2022-12-04T18:09:05.056Z,101970.44
2022-12-04T18:14:14.049Z,101968.38
2022-12-04T18:19:15.541Z,101960.47
2022-12-04T18:24:17.900Z,101968.31
2022-12-04T18:29:22.292Z,101967.25
2022-12-04T18:34:23.771Z,101963.88
2022-12-04T18:39:25.836Z,101972.81
2022-12-04T18:44:27.462Z,101976.13
2022-12-04T18:49:28.968Z,101967.09
2022-12-04T18:54:30.433Z,101974.63
2022-12-04T18:59:33.022Z,101974.19
2022-12-04T19:04:34.647Z,101987.84
2022-12-04T19:10:09.374Z,101988.88
2022-12-04T19:14:57.679Z,101995.50
2022-12-04T19:19:59.530Z,101996.72
2022-12-04T19:25:01.668Z,101996.44
2022-12-04T19:30:04.225Z,102000.09
2022-12-04T19:35:05.967Z,101991.03
2022-12-04T19:40:07.874Z,101988.63
2022-12-04T19:45:09.717Z,101989.56
2022-12-04T19:50:11.461Z,101990.34
2022-12-04T19:55:13.211Z,101985.13
2022-12-04T20:00:14.878Z,101993.03
2022-12-04T20:05:16.393Z,101995.91
2022-12-04T20:10:18.032Z,101991.66
2022-12-04T20:15:19.632Z,101989.53
2022-12-04T20:20:21.150Z,101999.69
2022-12-04T20:25:22.720Z,101992.88
2022-12-04T20:30:24.301Z,101989.94
2022-12-04T20:35:25.851Z,101993.22
2022-12-04T20:40:27.339Z,101988.91
2022-12-04T20:45:30.152Z,101979.91
2022-12-04T20:50:32.165Z,101981.53
2022-12-04T20:55:33.607Z,101971.44
2022-12-04T21:00:35.210Z,101968.28
2022-12-04T21:05:36.708Z,101966.59
2022-12-04T21:10:38.285Z,101976.63
2022-12-04T21:15:58.269Z,101973.91
2022-12-04T21:21:01.721Z,101971.13
2022-12-04T21:26:03.518Z,101966.59
2022-12-04T21:31:06.253Z,101990.41
2022-12-04T21:36:09.725Z,101983.84
2022-12-04T21:41:31.600Z,101976.34
2022-12-04T21:46:33.206Z,101981.19
2022-12-04T21:56:57.720Z,101978.59
2022-12-04T22:02:01.168Z,101978.13
2022-12-04T22:07:02.884Z,101983.63
2022-12-04T22:12:20.264Z,101972.44
2022-12-04T22:17:29.542Z,101982.09
2022-12-04T22:22:31.087Z,101977.06
2022-12-04T22:27:32.536Z,101971.50
2022-12-04T22:32:34.316Z,101989.25
2022-12-04T22:37:41.117Z,101988.19
2022-12-04T22:42:45.592Z,101985.88
2022-12-04T22:47:47.128Z,101979.75
2022-12-04T22:52:48.674Z,101979.00
2022-12-04T22:57:50.172Z,101983.03
2022-12-04T23:02:51.816Z,101985.09
2022-12-04T23:07:53.456Z,101990.66
2022-12-04T23:12:54.968Z,101983.63
2022-12-04T23:17:56.500Z,101998.09
2022-12-04T23:22:59.300Z,101987.31
2022-12-04T23:28:00.886Z,101980.00
2022-12-04T23:33:02.422Z,101970.25
2022-12-04T23:38:03.990Z,101979.03
2022-12-04T23:43:05.540Z,101983.34
2022-12-04T23:48:07.080Z,101981.91
2022-12-04T23:53:08.549Z,101972.38
2022-12-04T23:58:10.071Z,101972.84
